ADDS METAR Data INFO
IDs: Format: Raw Decoded Include TAF

Data at: 1511 UTC 23 Oct 2017

KBVU 231455Z AUTO 10004KT 10SM 16/M02 A3032 RMK AO2
KBVU 231435Z AUTO 00000KT 10SM 14/M03 A3031 RMK AO2
KBVU 231415Z AUTO 00000KT 10SM 15/M03 A3030 RMK AO2
KBVU 231355Z AUTO VRB04KT 10SM 17/M04 A3029 RMK AO2
KBVU 231335Z AUTO 00000KT 10SM 13/M01 A3029 RMK AO2
KBVU 231315Z AUTO 00000KT 10SM 14/M02 A3029 RMK AO2
KBVU 231255Z AUTO 00000KT 10SM 15/M02 A3029 RMK AO2
KBVU 231235Z AUTO 00000KT 10SM 15/M02 A3029 RMK AO2
KBVU 231215Z AUTO 00000KT 10SM 14/M01 A3029 RMK AO2
KBVU 231155Z AUTO 00000KT 10SM 15/M02 A3028 RMK AO2
KBVU 231135Z AUTO VRB04KT 10SM 15/M02 A3028 RMK AO2
KBVU 231115Z AUTO 00000KT 10SM 15/M02 A3028 RMK AO2
KBVU 231055Z AUTO 00000KT 10SM 15/M03 A3028 RMK AO2
KBVU 231035Z AUTO 00000KT 10SM 16/M03 A3028 RMK AO2
KBVU 231015Z AUTO 32007KT 10SM 18/M04 A3028 RMK AO2
KBVU 230955Z AUTO 35004KT 10SM 18/M03 A3028 RMK AO2
KBVU 230935Z AUTO 00000KT 10SM 17/M03 A3028 RMK AO2
KBVU 230915Z AUTO 00000KT 10SM 18/M03 A3027 RMK AO2
KBVU 230855Z AUTO 00000KT 10SM 18/M02 A3028 RMK AO2
KBVU 230835Z AUTO 00000KT 10SM 18/M01 A3027 RMK AO2
KBVU 230815Z AUTO 00000KT 10SM 17/M00 A3027 RMK AO2
KBVU 230755Z AUTO 00000KT 10SM 17/M00 A3027 RMK AO2
KBVU 230735Z AUTO 00000KT 10SM 16/01 A3026 RMK AO2
KBVU 230715Z AUTO 00000KT 10SM 16/03 A3026 RMK AO2
KBVU 230655Z AUTO 00000KT 10SM 16/03 A3027 RMK AO2
KBVU 230635Z AUTO 00000KT 10SM 17/02 A3027 RMK AO2
KBVU 230615Z AUTO 00000KT 10SM 17/01 A3027 RMK AO2
KBVU 230555Z AUTO 00000KT 10SM 18/M00 A3027 RMK AO2
KBVU 230535Z AUTO 00000KT 10SM 19/M01 A3027 RMK AO2
KBVU 230515Z AUTO 28004KT 10SM 19/M03 A3027 RMK AO2
KBVU 230455Z AUTO 31004KT 10SM 20/M02 A3027 RMK AO2
KBVU 230435Z AUTO VRB04KT 10SM 21/M02 A3027 RMK AO2
KBVU 230415Z AUTO 01005KT 10SM 21/M00 A3026 RMK AO2
KBVU 230355Z AUTO 00000KT 10SM 21/M01 A3026 RMK AO2
KBVU 230335Z AUTO 00000KT 10SM 20/01 A3026 RMK AO2
KBVU 230315Z AUTO 05005KT 10SM 21/01 A3025 RMK AO2
KBVU 230255Z AUTO 03005KT 10SM 23/M00 A3025 RMK AO2
KBVU 230235Z AUTO 02005KT 10SM 24/M02 A3025 RMK AO2
KBVU 230215Z AUTO 35006KT 10SM 23/M02 A3024 RMK AO2
KBVU 230155Z AUTO 35005KT 10SM 22/M02 A3024 RMK AO2
KBVU 230135Z AUTO 01004KT 10SM 23/M02 A3024 RMK AO2
KBVU 230115Z AUTO 03005KT 10SM 24/M02 A3024 RMK AO2
KBVU 230055Z AUTO 03006KT 10SM 25/M01 A3024 RMK AO2
KBVU 230035Z AUTO 06003KT 10SM 27/M01 A3023 RMK AO2
KBVU 230015Z AUTO 00000KT 10SM 28/M03 A3023 RMK AO2
KBVU 222355Z AUTO 00000KT 10SM 28/M03 A3023 RMK AO2
KBVU 222335Z AUTO 31003KT 10SM 28/M04 A3024 RMK AO2
KBVU 222315Z AUTO 00000KT 10SM 27/M03 A3024 RMK AO2
KBVU 222255Z AUTO 00000KT 10SM 28/M04 A3025 RMK AO2
KBVU 222235Z AUTO 00000KT 10SM 28/M03 A3025 RMK AO2
KBVU 222215Z AUTO 00000KT 10SM 27/M03 A3026 RMK AO2
KBVU 222155Z AUTO 00000KT 10SM 27/M03 A3026 RMK AO2
KBVU 222135Z AUTO VRB04KT 10SM 27/M02 A3026 RMK AO2
KBVU 222115Z AUTO VRB04KT 10SM 27/M04 A3027 RMK AO2
KBVU 222055Z AUTO 05004KT 10SM 26/M05 A3028 RMK AO2
KBVU 222035Z AUTO 34008KT 290V050 10SM 27/M07 A3028 RMK AO2
KBVU 222015Z AUTO VRB03KT 10SM 26/M06 A3029 RMK AO2
KBVU 221955Z AUTO VRB05KT 10SM 26/M06 A3030 RMK AO2
KBVU 221935Z AUTO 13004KT 10SM 25/M07 A3031 RMK AO2
KBVU 221915Z AUTO 00000KT 10SM 24/M07 A3032 RMK AO2
KBVU 221855Z AUTO 00000KT 10SM 23/M06 A3033 RMK AO2
KBVU 221835Z AUTO 00000KT 10SM 23/M07 A3033 RMK AO2
KBVU 221815Z AUTO VRB04KT 10SM 22/M10 A3033 RMK AO2
KBVU 221755Z AUTO 11004KT 10SM 21/M10 A3033 RMK AO2
KBVU 221735Z AUTO 17004KT 10SM 20/M11 A3034 RMK AO2
KBVU 221715Z AUTO 13005KT 10SM 20/M11 A3033 RMK AO2
KBVU 221655Z AUTO 13006KT 10SM 20/M11 A3034 RMK AO2
KBVU 221635Z AUTO VRB06KT 10SM 20/M11 A3034 RMK AO2
KBVU 221615Z AUTO 28007KT 10SM 19/M11 A3034 RMK AO2
KBVU 221555Z AUTO 25004KT 10SM 16/M11 A3035 RMK AO2
KBVU 221535Z AUTO 00000KT 10SM 16/M12 A3034 RMK AO2
KBVU 221515Z AUTO 00000KT 10SM 17/M11 A3033 RMK AO2
KBVU 221455Z AUTO 33003KT 10SM 17/M10 A3032 RMK AO2
KBVU 221435Z AUTO 31003KT 10SM 16/M11 A3031 RMK AO2
KBVU 221415Z AUTO 00000KT 10SM 14/M12 A3031 RMK AO2
KBVU 221355Z AUTO 27005KT 10SM 13/M12 A3030 RMK AO2
KBVU 221335Z AUTO 27005KT 10SM 12/M12 A3029 RMK AO2
KBVU 221315Z AUTO 00000KT 10SM 13/M12 A3029 RMK AO2
KBVU 221255Z AUTO 00000KT 10SM 14/M10 A3028 RMK AO2
KBVU 221235Z AUTO 35008KT 10SM 16/M10 A3027 RMK AO2
KBVU 221215Z AUTO 01006KT 10SM 15/M10 A3027 RMK AO2
KBVU 221155Z AUTO 35004KT 10SM 14/M11 A3027 RMK AO2
KBVU 221135Z AUTO 00000KT 10SM 14/M12 A3026 RMK AO2
KBVU 221115Z AUTO 00000KT 10SM 16/M11 A3026 RMK AO2
KBVU 221055Z AUTO 31003KT 10SM 16/M12 A3026 RMK AO2
KBVU 221035Z AUTO 34005KT 10SM 14/M11 A3026 RMK AO2
KBVU 221015Z AUTO 30004KT 10SM 13/M13 A3026 RMK AO2
KBVU 220955Z AUTO 00000KT 10SM 12/M06 A3027 RMK AO2
KBVU 220935Z AUTO 00000KT 10SM 14/M12 A3027 RMK AO2
KBVU 220915Z AUTO 29004KT 10SM 14/M12 A3028 RMK AO2
KBVU 220855Z AUTO 00000KT 10SM 15/M11 A3028 RMK AO2
KBVU 220835Z AUTO 00000KT 10SM 16/M11 A3027 RMK AO2
KBVU 220815Z AUTO 00000KT 10SM 15/M12 A3028 RMK AO2
KBVU 220755Z AUTO 00000KT 10SM 15/M12 A3027 RMK AO2
KBVU 220735Z AUTO 01006KT 10SM 16/M09 A3027 RMK AO2
KBVU 220715Z AUTO 01005KT 10SM 16/M09 A3027 RMK AO2
KBVU 220655Z AUTO 36005KT 10SM 16/M09 A3027 RMK AO2
KBVU 220635Z AUTO 30003KT 10SM 15/M09 A3026 RMK AO2
KBVU 220615Z AUTO 32004KT 10SM 15/M11 A3026 RMK AO2
KBVU 220555Z AUTO 32006KT 10SM 15/M13 A3026 RMK AO2
KBVU 220535Z AUTO 00000KT 10SM 15/M12 A3025 RMK AO2
KBVU 220515Z AUTO 29004KT 10SM 16/M10 A3024 RMK AO2
KBVU 220455Z AUTO 01005KT 10SM 15/M06 A3023 RMK AO2
KBVU 220435Z AUTO 02006KT 10SM 16/M08 A3023 RMK AO2
KBVU 220415Z AUTO 01006KT 10SM 16/M09 A3022 RMK AO2
KBVU 220355Z AUTO 35005KT 10SM 16/M09 A3021 RMK AO2
KBVU 220335Z AUTO 04007KT 10SM 17/M08 A3021 RMK AO2
KBVU 220315Z AUTO 04006KT 10SM 17/M06 A3021 RMK AO2